createdAt,value
2022-11-07T00:00:22.870Z,0.80
2022-11-07T00:01:22.867Z,0.60
2022-11-07T00:02:22.906Z,0.60
2022-11-07T00:03:22.856Z,0.60
2022-11-07T00:04:22.821Z,0.60
2022-11-07T00:05:22.808Z,0.70
2022-11-07T00:06:22.912Z,0.60
2022-11-07T00:07:22.782Z,0.70
2022-11-07T00:08:22.798Z,0.60
2022-11-07T00:09:22.764Z,0.60
2022-11-07T00:10:22.746Z,0.60
2022-11-07T00:11:22.728Z,0.70
2022-11-07T00:12:22.731Z,0.70
2022-11-07T00:13:22.713Z,0.60
2022-11-07T00:14:22.720Z,0.80
2022-11-07T00:15:22.695Z,0.60
2022-11-07T00:16:22.675Z,0.50
2022-11-07T00:17:22.670Z,0.70
2022-11-07T00:18:22.656Z,0.70
2022-11-07T00:19:22.656Z,0.60
2022-11-07T00:20:22.633Z,0.70
2022-11-07T00:21:22.645Z,0.70
2022-11-07T00:22:22.619Z,0.70
2022-11-07T00:23:22.599Z,0.60
2022-11-07T00:24:22.613Z,0.70
2022-11-07T00:25:22.590Z,0.70
2022-11-07T00:26:22.570Z,0.70
2022-11-07T00:27:22.613Z,0.60
2022-11-07T00:28:22.541Z,0.60
2022-11-07T00:29:22.561Z,0.70
2022-11-07T00:30:22.521Z,0.60
2022-11-07T00:31:22.541Z,0.60
2022-11-07T00:32:22.501Z,0.60
2022-11-07T00:33:22.490Z,0.60
2022-11-07T00:34:22.503Z,0.50
2022-11-07T00:35:22.471Z,0.60
2022-11-07T00:36:22.468Z,0.70
2022-11-07T00:37:22.437Z,0.60
2022-11-07T00:38:22.434Z,0.70
2022-11-07T00:39:22.422Z,0.50
2022-11-07T00:40:22.420Z,0.50
2022-11-07T00:41:22.392Z,0.60
2022-11-07T00:42:22.378Z,0.60
2022-11-07T00:43:22.369Z,0.50
2022-11-07T00:44:22.371Z,0.50
2022-11-07T00:45:22.354Z,0.60
2022-11-07T00:46:22.344Z,0.70
2022-11-07T00:47:22.356Z,0.70
2022-11-07T00:48:22.315Z,0.60
2022-11-07T00:49:22.317Z,0.60
2022-11-07T00:50:22.312Z,0.60
2022-11-07T00:51:22.302Z,0.70
2022-11-07T00:52:22.275Z,0.80
2022-11-07T00:53:22.253Z,0.60
2022-11-07T00:54:22.274Z,0.50
2022-11-07T00:55:22.245Z,0.50
2022-11-07T00:56:22.235Z,0.60
2022-11-07T00:57:22.205Z,0.60
2022-11-07T00:58:22.207Z,0.50
2022-11-07T00:59:22.194Z,0.70
2022-11-07T01:00:22.178Z,0.50
2022-11-07T01:01:22.296Z,0.70
2022-11-07T01:02:22.290Z,0.50
2022-11-07T01:03:22.146Z,0.60
2022-11-07T01:04:22.145Z,0.40
2022-11-07T01:05:22.146Z,0.60
2022-11-07T01:06:22.134Z,0.50
2022-11-07T01:07:22.125Z,0.60
2022-11-07T01:08:22.090Z,0.60
2022-11-07T01:09:22.084Z,0.70
2022-11-07T01:10:22.112Z,0.60
2022-11-07T01:11:22.088Z,0.60
2022-11-07T01:12:22.092Z,0.50
2022-11-07T01:13:22.030Z,0.70
2022-11-07T01:14:22.029Z,0.60
2022-11-07T01:15:22.018Z,0.70
2022-11-07T01:16:22.027Z,0.50
2022-11-07T01:17:22.000Z,0.70
2022-11-07T01:18:21.979Z,0.50
2022-11-07T01:19:21.979Z,0.60
2022-11-07T01:20:21.977Z,0.60
2022-11-07T01:21:21.956Z,0.60
2022-11-07T01:22:21.934Z,0.50
2022-11-07T01:23:21.935Z,0.60
2022-11-07T01:24:21.906Z,0.50
2022-11-07T01:25:21.899Z,0.60
2022-11-07T01:26:21.905Z,0.60
2022-11-07T01:27:21.884Z,0.60
2022-11-07T01:28:21.856Z,0.50
2022-11-07T01:29:21.845Z,0.70
2022-11-07T01:30:21.832Z,0.60
2022-11-07T01:31:21.852Z,0.60
2022-11-07T01:32:21.818Z,0.70
2022-11-07T01:33:21.836Z,0.60
2022-11-07T01:34:21.801Z,0.70
2022-11-07T01:35:21.777Z,0.60
2022-11-07T01:36:21.790Z,0.60
2022-11-07T01:37:21.755Z,0.60
2022-11-07T01:38:21.747Z,0.60
2022-11-07T01:39:21.736Z,0.70
2022-11-07T01:40:21.721Z,0.60
2022-11-07T01:41:21.745Z,0.50
2022-11-07T01:42:21.702Z,0.80
2022-11-07T01:43:21.712Z,0.60
2022-11-07T01:44:21.680Z,0.60
2022-11-07T01:45:21.672Z,0.70
2022-11-07T01:46:21.677Z,0.70
2022-11-07T01:47:21.645Z,0.60
2022-11-07T01:48:21.629Z,0.60
2022-11-07T01:49:21.649Z,0.50
2022-11-07T01:50:24.655Z,0.70
2022-11-07T01:51:21.620Z,0.50
2022-11-07T01:52:21.587Z,0.70
2022-11-07T01:53:21.577Z,0.60
2022-11-07T01:54:21.566Z,0.60
2022-11-07T01:55:21.566Z,0.70
2022-11-07T01:56:21.570Z,0.60
2022-11-07T01:57:21.525Z,0.60
2022-11-07T01:58:21.514Z,0.60
2022-11-07T01:59:21.528Z,0.60
2022-11-07T02:00:21.498Z,0.70
2022-11-07T02:01:21.524Z,0.70
2022-11-07T02:02:21.568Z,0.60
2022-11-07T02:03:21.474Z,0.60
2022-11-07T02:04:21.465Z,0.70
2022-11-07T02:05:21.438Z,0.60
2022-11-07T02:06:21.440Z,0.60
2022-11-07T02:07:21.416Z,0.60
2022-11-07T02:08:21.451Z,0.60
2022-11-07T02:09:21.414Z,0.70
2022-11-07T02:10:21.375Z,0.60
2022-11-07T02:11:21.395Z,0.60
2022-11-07T02:12:21.392Z,0.50
2022-11-07T02:13:21.352Z,0.60
2022-11-07T02:14:21.328Z,0.70
2022-11-07T02:15:21.324Z,0.60
2022-11-07T02:16:21.332Z,0.60
2022-11-07T02:17:21.310Z,0.70
2022-11-07T02:18:21.288Z,0.50
2022-11-07T02:19:21.282Z,0.80
2022-11-07T02:20:21.277Z,0.70
2022-11-07T02:21:21.277Z,0.60
2022-11-07T02:22:21.280Z,0.70
2022-11-07T02:23:21.240Z,0.60
2022-11-07T02:24:21.234Z,0.60
2022-11-07T02:25:21.234Z,0.70
2022-11-07T02:26:21.208Z,0.60
2022-11-07T02:27:21.191Z,0.80
2022-11-07T02:28:21.179Z,0.70
2022-11-07T02:29:21.215Z,0.60
2022-11-07T02:30:21.201Z,0.60
2022-11-07T02:31:21.179Z,0.70
2022-11-07T02:32:21.163Z,0.80
2022-11-07T02:33:21.120Z,0.60
2022-11-07T02:34:21.122Z,0.50
2022-11-07T02:35:21.117Z,0.60
2022-11-07T02:36:21.123Z,0.60
2022-11-07T02:37:21.073Z,0.50
2022-11-07T02:38:21.073Z,0.60
2022-11-07T02:39:21.078Z,0.60
2022-11-07T02:40:21.045Z,0.60
2022-11-07T02:41:21.055Z,0.70
2022-11-07T02:42:21.029Z,0.70
2022-11-07T02:43:21.009Z,0.70
2022-11-07T02:44:20.989Z,0.70
2022-11-07T02:45:20.991Z,0.90
2022-11-07T02:46:20.996Z,0.70
2022-11-07T02:47:20.970Z,0.80
2022-11-07T02:48:20.977Z,0.70
2022-11-07T02:49:20.940Z,0.80
2022-11-07T02:50:20.940Z,0.60
2022-11-07T02:51:20.959Z,0.70
2022-11-07T02:52:20.929Z,0.60
2022-11-07T02:53:20.910Z,0.60
2022-11-07T02:54:20.880Z,0.80
2022-11-07T02:55:20.872Z,0.60
2022-11-07T02:56:20.867Z,0.90
2022-11-07T02:57:20.872Z,0.70
2022-11-07T02:58:20.866Z,0.60
2022-11-07T02:59:26.639Z,0.70
2022-11-07T03:00:21.815Z,0.60
2022-11-07T03:01:20.890Z,0.60
2022-11-07T03:02:20.923Z,0.70
2022-11-07T03:03:20.793Z,0.70
2022-11-07T03:04:20.783Z,0.70
2022-11-07T03:05:20.764Z,0.60
2022-11-07T03:06:20.752Z,0.60
2022-11-07T03:07:20.765Z,0.80
2022-11-07T03:08:20.729Z,0.80
2022-11-07T03:09:20.700Z,1.10
2022-11-07T03:10:20.706Z,0.70
2022-11-07T03:11:20.697Z,0.90
2022-11-07T03:12:20.705Z,0.70
2022-11-07T03:13:20.671Z,1.00
2022-11-07T03:14:20.733Z,0.70
2022-11-07T03:15:20.642Z,0.70
2022-11-07T03:16:20.635Z,0.70
2022-11-07T03:17:20.642Z,0.70
2022-11-07T03:18:20.617Z,0.80
2022-11-07T03:19:20.603Z,0.80
2022-11-07T03:20:20.597Z,0.80
2022-11-07T03:21:20.583Z,0.90
2022-11-07T03:22:20.594Z,0.80
2022-11-07T03:23:20.587Z,1.00
2022-11-07T03:24:20.570Z,0.90
2022-11-07T03:25:20.541Z,0.90
2022-11-07T03:26:20.525Z,0.90
2022-11-07T03:27:20.523Z,0.70
2022-11-07T03:28:20.503Z,0.90
2022-11-07T03:29:20.501Z,0.90
2022-11-07T03:30:20.484Z,0.80
2022-11-07T03:31:20.476Z,0.70
2022-11-07T03:32:20.460Z,0.90
2022-11-07T03:33:20.450Z,1.00
2022-11-07T03:34:20.472Z,0.70
2022-11-07T03:35:20.435Z,1.00
2022-11-07T03:36:20.408Z,0.70
2022-11-07T03:37:20.396Z,0.90
2022-11-07T03:38:20.397Z,0.90
2022-11-07T03:39:25.502Z,1.10
2022-11-07T03:40:21.380Z,0.70
2022-11-07T03:41:20.365Z,0.80
2022-11-07T03:42:20.350Z,0.70
2022-11-07T03:43:20.333Z,0.70
2022-11-07T03:44:20.331Z,0.80
2022-11-07T03:45:20.328Z,0.80
2022-11-07T03:46:20.307Z,0.80
2022-11-07T03:47:20.284Z,0.80
2022-11-07T03:48:20.276Z,0.70
2022-11-07T03:49:20.260Z,0.90
2022-11-07T03:50:20.277Z,0.70
2022-11-07T03:51:20.247Z,0.80
2022-11-07T03:52:20.249Z,0.80
2022-11-07T03:53:25.180Z,0.90
2022-11-07T03:54:21.247Z,0.80
2022-11-07T03:55:20.205Z,0.90
2022-11-07T03:56:20.180Z,0.60
2022-11-07T03:57:20.177Z,0.90
2022-11-07T03:58:20.168Z,0.70
2022-11-07T03:59:20.149Z,0.80
2022-11-07T04:00:20.164Z,0.90
2022-11-07T04:01:20.153Z,0.90
2022-11-07T04:02:20.313Z,0.70
2022-11-07T04:03:20.117Z,1.00
2022-11-07T04:04:20.104Z,0.80
2022-11-07T04:05:20.096Z,0.90
2022-11-07T04:06:20.066Z,0.90
2022-11-07T04:07:20.067Z,0.80
2022-11-07T04:08:20.050Z,0.90
2022-11-07T04:09:20.030Z,0.80
2022-11-07T04:10:20.029Z,1.10
2022-11-07T04:11:20.038Z,0.70
2022-11-07T04:12:20.018Z,0.90
2022-11-07T04:13:20.006Z,0.90
2022-11-07T04:14:20.011Z,0.80
2022-11-07T04:15:19.967Z,0.80
2022-11-07T04:16:19.997Z,0.80
2022-11-07T04:17:19.940Z,0.70
2022-11-07T04:18:19.927Z,0.80
2022-11-07T04:19:19.921Z,0.80
2022-11-07T04:20:19.922Z,0.80
2022-11-07T04:21:19.913Z,0.90
2022-11-07T04:22:19.896Z,0.90
2022-11-07T04:23:19.906Z,0.80
2022-11-07T04:24:19.868Z,0.90
2022-11-07T04:25:19.857Z,0.80
2022-11-07T04:26:19.881Z,0.70
2022-11-07T04:27:19.831Z,0.70
2022-11-07T04:28:19.840Z,0.80
2022-11-07T04:29:19.820Z,0.80
2022-11-07T04:30:19.917Z,0.80
2022-11-07T04:31:19.797Z,0.80
2022-11-07T04:32:19.782Z,0.70
2022-11-07T04:33:19.762Z,0.70
2022-11-07T04:34:19.760Z,0.90
2022-11-07T04:35:19.736Z,0.60
2022-11-07T04:36:19.757Z,1.00
2022-11-07T04:37:19.729Z,0.80
2022-11-07T04:38:19.722Z,0.70
2022-11-07T04:39:19.725Z,0.90
2022-11-07T04:40:19.712Z,0.80
2022-11-07T04:41:19.685Z,0.90
2022-11-07T04:42:19.681Z,0.90
2022-11-07T04:43:19.661Z,0.90
2022-11-07T04:44:19.641Z,1.00
2022-11-07T04:45:19.626Z,1.10
2022-11-07T04:46:19.626Z,0.90
2022-11-07T04:47:19.606Z,1.10
2022-11-07T04:48:19.604Z,0.90
2022-11-07T04:49:19.590Z,0.90
2022-11-07T04:50:19.578Z,0.70
2022-11-07T04:51:19.560Z,0.80
2022-11-07T04:52:19.567Z,0.90
2022-11-07T04:53:19.558Z,0.90
2022-11-07T04:54:19.522Z,1.00
2022-11-07T04:55:19.538Z,0.90
2022-11-07T04:56:19.520Z,0.90
2022-11-07T04:57:19.493Z,0.90
2022-11-07T04:58:19.499Z,0.80
2022-11-07T04:59:19.460Z,0.70
2022-11-07T05:00:19.452Z,0.80
2022-11-07T05:01:19.452Z,0.70
2022-11-07T05:02:19.618Z,1.00
2022-11-07T05:03:19.701Z,0.80
2022-11-07T05:04:19.412Z,0.70
2022-11-07T05:05:19.403Z,0.80
2022-11-07T05:06:19.397Z,0.80
2022-11-07T05:07:19.383Z,1.10
2022-11-07T05:08:19.402Z,0.80
2022-11-07T05:09:19.362Z,0.80
2022-11-07T05:10:19.342Z,0.80
2022-11-07T05:11:19.332Z,0.90
2022-11-07T05:12:19.343Z,0.90
2022-11-07T05:13:19.323Z,0.80
2022-11-07T05:14:19.300Z,0.90
2022-11-07T05:15:19.291Z,0.80
2022-11-07T05:16:19.272Z,0.90
2022-11-07T05:17:19.261Z,0.80
2022-11-07T05:18:19.273Z,0.70
2022-11-07T05:19:19.238Z,0.80
2022-11-07T05:20:19.226Z,0.90
2022-11-07T05:21:19.215Z,0.90
2022-11-07T05:22:19.231Z,0.70
2022-11-07T05:23:19.969Z,0.80
2022-11-07T05:24:19.181Z,0.70
2022-11-07T05:25:19.191Z,1.10
2022-11-07T05:26:19.160Z,0.80
2022-11-07T05:27:19.250Z,0.80
2022-11-07T05:28:25.729Z,0.90
2022-11-07T05:29:20.126Z,0.80
2022-11-07T05:30:19.112Z,0.70
2022-11-07T05:31:19.108Z,0.90
2022-11-07T05:32:19.112Z,0.90
2022-11-07T05:33:19.084Z,0.70
2022-11-07T05:34:19.085Z,0.80
2022-11-07T05:35:19.071Z,0.90
2022-11-07T05:36:19.043Z,0.90
2022-11-07T05:37:19.033Z,0.90
2022-11-07T05:38:19.047Z,1.00
2022-11-07T05:39:19.018Z,0.80
2022-11-07T05:40:19.003Z,0.80
2022-11-07T05:41:19.015Z,0.90
2022-11-07T05:42:18.977Z,0.80
2022-11-07T05:43:18.976Z,0.90
2022-11-07T05:44:18.972Z,0.70
2022-11-07T05:45:18.958Z,1.10
2022-11-07T05:46:18.948Z,0.70
2022-11-07T05:47:18.925Z,0.80
2022-11-07T05:48:18.921Z,0.80
2022-11-07T05:49:18.917Z,2.70
2022-11-07T05:50:18.895Z,3.10
2022-11-07T05:51:18.896Z,3.00
2022-11-07T05:52:18.872Z,3.00
2022-11-07T05:53:19.251Z,2.00
2022-11-07T05:54:18.861Z,1.70
2022-11-07T05:55:18.852Z,1.80
2022-11-07T05:56:18.837Z,1.30
2022-11-07T05:57:18.804Z,1.30
2022-11-07T05:58:18.808Z,1.30
2022-11-07T05:59:18.784Z,1.10
2022-11-07T06:00:18.786Z,1.10
2022-11-07T06:01:18.788Z,0.80
2022-11-07T06:02:18.849Z,0.90
2022-11-07T06:03:19.247Z,0.90
2022-11-07T06:04:18.757Z,0.70
2022-11-07T06:05:23.128Z,0.60
2022-11-07T06:06:19.736Z,0.80
2022-11-07T06:07:18.697Z,0.70
2022-11-07T06:08:18.686Z,0.70
2022-11-07T06:09:18.700Z,0.80
2022-11-07T06:10:18.686Z,0.70
2022-11-07T06:11:18.666Z,0.70
2022-11-07T06:12:18.639Z,0.70
2022-11-07T06:13:19.013Z,0.90
2022-11-07T06:14:18.642Z,0.80
2022-11-07T06:15:18.616Z,0.60
2022-11-07T06:16:18.601Z,0.80
2022-11-07T06:17:18.629Z,0.80
2022-11-07T06:18:18.572Z,0.80
2022-11-07T06:19:18.565Z,0.60
2022-11-07T06:20:18.574Z,0.80
2022-11-07T06:21:18.597Z,0.90
2022-11-07T06:22:18.565Z,0.80
2022-11-07T06:23:18.758Z,0.70
2022-11-07T06:24:18.508Z,0.80
2022-11-07T06:25:18.497Z,0.80
2022-11-07T06:26:18.486Z,0.80
2022-11-07T06:27:18.491Z,0.70
2022-11-07T06:28:18.488Z,0.70
2022-11-07T06:29:18.447Z,1.10
2022-11-07T06:30:18.470Z,0.80
2022-11-07T06:31:18.439Z,0.80
2022-11-07T06:32:18.437Z,0.70
2022-11-07T06:33:19.060Z,1.00
2022-11-07T06:34:18.425Z,0.70
2022-11-07T06:35:18.375Z,1.10
2022-11-07T06:36:18.388Z,0.80
2022-11-07T06:37:18.358Z,0.90
2022-11-07T06:38:18.357Z,0.80
2022-11-07T06:39:18.351Z,0.90
2022-11-07T06:40:18.348Z,0.80
2022-11-07T06:41:18.320Z,0.90
2022-11-07T06:42:18.299Z,1.00
2022-11-07T06:43:18.882Z,0.60
2022-11-07T06:44:18.297Z,0.80
2022-11-07T06:45:18.267Z,0.90
2022-11-07T06:46:18.270Z,0.90
2022-11-07T06:47:18.243Z,1.00
2022-11-07T06:48:18.231Z,0.90
2022-11-07T06:49:18.229Z,0.70
2022-11-07T06:50:18.233Z,0.80
2022-11-07T06:51:18.188Z,0.80
2022-11-07T06:52:18.195Z,0.90
2022-11-07T06:53:18.627Z,1.00
2022-11-07T06:54:18.165Z,0.80
2022-11-07T06:55:18.147Z,1.10
2022-11-07T06:56:18.161Z,0.80
2022-11-07T06:57:18.121Z,1.00
2022-11-07T06:58:18.116Z,0.70
2022-11-07T06:59:18.099Z,0.60
2022-11-07T07:00:18.102Z,0.80
2022-11-07T07:01:18.142Z,0.60
2022-11-07T07:02:30.820Z,0.70
2022-11-07T07:03:19.389Z,0.60
2022-11-07T07:04:18.060Z,0.70
2022-11-07T07:05:21.118Z,0.70
2022-11-07T07:06:18.050Z,0.70
2022-11-07T07:07:18.028Z,0.80
2022-11-07T07:08:18.000Z,1.00
2022-11-07T07:09:18.027Z,0.80
2022-11-07T07:10:17.984Z,0.90
2022-11-07T07:11:18.000Z,0.80
2022-11-07T07:12:17.959Z,0.70
2022-11-07T07:13:18.358Z,0.70
2022-11-07T07:14:17.937Z,0.60
2022-11-07T07:15:17.940Z,1.10
2022-11-07T07:16:17.939Z,0.90
2022-11-07T07:17:17.909Z,0.90
2022-11-07T07:18:17.884Z,0.80
2022-11-07T07:19:17.886Z,0.80
2022-11-07T07:20:17.869Z,0.80
2022-11-07T07:21:17.861Z,0.70
2022-11-07T07:22:17.881Z,0.80
2022-11-07T07:23:18.089Z,0.70
2022-11-07T07:24:17.820Z,0.60
2022-11-07T07:25:17.803Z,0.80
2022-11-07T07:26:17.814Z,0.80
2022-11-07T07:27:17.788Z,0.90
2022-11-07T07:28:17.780Z,0.80
2022-11-07T07:29:17.786Z,0.70
2022-11-07T07:30:17.742Z,1.00
2022-11-07T07:31:17.733Z,0.60
2022-11-07T07:32:17.764Z,0.70
2022-11-07T07:33:18.128Z,0.60
2022-11-07T07:34:17.715Z,0.80
2022-11-07T07:35:17.725Z,0.60
2022-11-07T07:36:20.732Z,0.80
2022-11-07T07:37:17.682Z,0.60
2022-11-07T07:38:17.727Z,0.70
2022-11-07T07:39:17.650Z,0.90
2022-11-07T07:40:17.632Z,0.50
2022-11-07T07:41:17.630Z,0.70
2022-11-07T07:42:17.626Z,0.60
2022-11-07T07:43:17.970Z,0.60
2022-11-07T07:44:17.608Z,0.70
2022-11-07T07:45:17.584Z,0.60
2022-11-07T07:46:17.571Z,0.80
2022-11-07T07:47:17.572Z,0.70
2022-11-07T07:48:17.544Z,0.70
2022-11-07T07:49:17.584Z,0.60
2022-11-07T07:50:17.527Z,0.60
2022-11-07T07:51:17.523Z,0.70
2022-11-07T07:52:17.495Z,0.60
2022-11-07T07:53:17.774Z,0.60
2022-11-07T07:54:17.481Z,0.80
2022-11-07T07:55:17.519Z,0.70
2022-11-07T07:56:17.461Z,0.70
2022-11-07T07:57:17.439Z,0.60
2022-11-07T07:58:17.470Z,0.60
2022-11-07T07:59:17.412Z,0.70
2022-11-07T08:00:17.547Z,0.80
2022-11-07T08:01:17.464Z,0.70
2022-11-07T08:02:17.463Z,0.70
2022-11-07T08:03:17.755Z,0.60
2022-11-07T08:04:17.363Z,0.70
2022-11-07T08:05:17.354Z,0.70
2022-11-07T08:06:17.357Z,0.70
2022-11-07T08:07:17.372Z,0.50
2022-11-07T08:08:17.337Z,0.60
2022-11-07T08:09:17.308Z,0.60
2022-11-07T08:11:18.300Z,0.60
2022-11-07T08:12:17.311Z,0.80
2022-11-07T08:13:17.652Z,0.70
2022-11-07T08:14:17.247Z,0.60
2022-11-07T08:15:17.260Z,0.70
2022-11-07T08:16:17.253Z,0.70
2022-11-07T08:17:17.229Z,0.70
2022-11-07T08:18:17.206Z,0.60
2022-11-07T08:19:17.198Z,0.70
2022-11-07T08:20:17.200Z,0.80
2022-11-07T08:21:17.213Z,0.50
2022-11-07T08:22:17.159Z,0.70
2022-11-07T08:23:17.210Z,0.60
2022-11-07T08:24:17.165Z,0.60
2022-11-07T08:25:17.159Z,0.90
2022-11-07T08:26:17.122Z,0.70
2022-11-07T08:27:17.124Z,0.80
2022-11-07T08:28:17.114Z,0.60
2022-11-07T08:29:17.094Z,0.80
2022-11-07T08:30:18.250Z,0.60
2022-11-07T08:31:17.083Z,1.30
2022-11-07T08:32:17.055Z,0.80
2022-11-07T08:33:17.280Z,0.70
2022-11-07T08:34:17.026Z,0.50
2022-11-07T08:35:17.012Z,0.70
2022-11-07T08:36:17.008Z,0.70
2022-11-07T08:37:16.990Z,0.50
2022-11-07T08:38:17.002Z,0.80
2022-11-07T08:39:16.972Z,0.60
2022-11-07T08:40:16.958Z,0.50
2022-11-07T08:41:21.795Z,0.70
2022-11-07T08:42:18.000Z,0.70
2022-11-07T08:43:17.234Z,0.80
2022-11-07T08:44:16.910Z,0.70
2022-11-07T08:45:16.893Z,0.60
2022-11-07T08:46:16.880Z,0.70
2022-11-07T08:47:16.905Z,0.70
2022-11-07T08:48:16.866Z,0.50
2022-11-07T08:49:16.872Z,0.70
2022-11-07T08:50:16.848Z,0.60
2022-11-07T08:51:16.840Z,0.60
2022-11-07T08:52:16.817Z,0.60
2022-11-07T08:53:17.111Z,0.70
2022-11-07T08:54:16.798Z,0.60
2022-11-07T08:55:16.797Z,0.60
2022-11-07T08:56:16.922Z,0.60
2022-11-07T08:57:16.790Z,0.60
2022-11-07T08:58:16.758Z,0.70
2022-11-07T08:59:16.732Z,0.50
2022-11-07T09:00:16.766Z,0.60
2022-11-07T09:01:16.937Z,0.60
2022-11-07T09:03:50.362Z,0.50
2022-11-07T09:04:17.743Z,0.70
2022-11-07T09:05:16.681Z,0.60
2022-11-07T09:06:16.659Z,0.60
2022-11-07T09:07:16.640Z,0.50
2022-11-07T09:08:16.642Z,0.70
2022-11-07T09:09:16.936Z,0.60
2022-11-07T09:10:16.630Z,0.80
2022-11-07T09:11:16.604Z,0.40
2022-11-07T09:12:16.596Z,0.60
2022-11-07T09:13:16.949Z,0.50
2022-11-07T09:14:16.566Z,0.50
2022-11-07T09:15:16.585Z,0.50
2022-11-07T09:16:16.545Z,0.60
2022-11-07T09:17:16.545Z,0.50
2022-11-07T09:18:16.512Z,0.50
2022-11-07T09:19:16.537Z,0.60
2022-11-07T09:20:16.488Z,0.70
2022-11-07T09:21:21.752Z,0.40
2022-11-07T09:22:17.469Z,0.60
2022-11-07T09:23:16.842Z,0.60
2022-11-07T09:24:16.469Z,0.60
2022-11-07T09:25:16.447Z,0.60
2022-11-07T09:26:16.432Z,0.50
2022-11-07T09:27:16.417Z,0.50
2022-11-07T09:28:16.409Z,0.50
2022-11-07T09:29:16.416Z,0.60
2022-11-07T09:30:16.375Z,0.70
2022-11-07T09:31:16.375Z,0.50
2022-11-07T09:32:42.900Z,0.60
2022-11-07T09:33:17.619Z,0.60
2022-11-07T09:34:16.346Z,0.60
2022-11-07T09:35:16.323Z,0.60
2022-11-07T09:36:16.314Z,0.40
2022-11-07T09:37:16.307Z,0.50
2022-11-07T09:38:16.282Z,0.70
2022-11-07T09:39:16.312Z,0.50
2022-11-07T09:40:16.257Z,0.60
2022-11-07T09:41:16.267Z,0.50
2022-11-07T09:42:16.237Z,0.50
2022-11-07T09:43:16.747Z,0.60
2022-11-07T09:44:16.251Z,0.50
2022-11-07T09:45:16.227Z,0.60
2022-11-07T09:46:16.205Z,0.50
2022-11-07T09:47:16.187Z,0.40
2022-11-07T09:48:16.180Z,0.60
2022-11-07T09:49:16.189Z,0.70
2022-11-07T09:50:16.160Z,0.50
2022-11-07T09:51:16.140Z,0.60
2022-11-07T09:52:16.143Z,0.50
2022-11-07T09:53:16.346Z,0.50
2022-11-07T09:54:16.110Z,0.40
2022-11-07T09:55:16.099Z,0.40
2022-11-07T09:56:16.082Z,0.60
2022-11-07T09:57:16.064Z,0.60
2022-11-07T09:58:16.060Z,0.50
2022-11-07T09:59:16.080Z,0.70
2022-11-07T10:00:16.091Z,0.50
2022-11-07T10:01:16.102Z,0.50
2022-11-07T10:02:16.069Z,0.60
2022-11-07T10:03:16.387Z,0.40
2022-11-07T10:04:25.247Z,0.40
2022-11-07T10:05:17.003Z,0.40
2022-11-07T10:06:16.823Z,0.50
2022-11-07T10:07:15.959Z,0.40
2022-11-07T10:08:15.936Z,0.50
2022-11-07T10:09:15.922Z,0.50
2022-11-07T10:10:15.943Z,0.50
2022-11-07T10:11:15.927Z,0.50
2022-11-07T10:12:15.938Z,0.50
2022-11-07T10:13:16.194Z,0.40
2022-11-07T10:14:15.947Z,0.40
2022-11-07T10:15:15.878Z,0.50
2022-11-07T10:16:15.875Z,0.50
2022-11-07T10:17:15.839Z,0.50
2022-11-07T10:18:15.823Z,0.50
2022-11-07T10:19:15.814Z,0.40
2022-11-07T10:20:19.262Z,0.40
2022-11-07T10:21:37.177Z,0.70
2022-11-07T10:22:16.783Z,0.40
2022-11-07T10:23:16.092Z,0.50
2022-11-07T10:24:15.748Z,0.40
2022-11-07T10:25:15.763Z,0.40
2022-11-07T10:26:15.730Z,0.50
2022-11-07T10:27:15.750Z,0.40
2022-11-07T10:28:15.725Z,0.40
2022-11-07T10:29:15.740Z,0.40
2022-11-07T10:30:15.732Z,0.50
2022-11-07T10:31:15.677Z,0.50
2022-11-07T10:32:15.692Z,0.40
2022-11-07T10:33:15.951Z,0.50
2022-11-07T10:34:15.632Z,0.50
2022-11-07T10:35:15.621Z,0.40
2022-11-07T10:36:15.618Z,0.40
2022-11-07T10:37:15.620Z,0.40
2022-11-07T10:38:15.626Z,0.40
2022-11-07T10:39:15.582Z,0.30
2022-11-07T10:40:15.576Z,0.30
2022-11-07T10:41:15.576Z,0.40
2022-11-07T10:42:15.545Z,0.40
2022-11-07T10:43:15.833Z,0.40
2022-11-07T10:44:15.582Z,0.40
2022-11-07T10:45:15.552Z,0.40
2022-11-07T10:46:15.522Z,0.30
2022-11-07T10:47:15.490Z,0.50
2022-11-07T10:48:15.886Z,0.40
2022-11-07T10:49:15.462Z,0.30
2022-11-07T10:50:15.471Z,0.40
2022-11-07T10:51:15.436Z,0.40
2022-11-07T10:52:15.456Z,0.40
2022-11-07T10:53:15.416Z,0.50
2022-11-07T10:54:20.731Z,0.30
2022-11-07T10:55:16.397Z,0.40
2022-11-07T10:56:15.380Z,0.70
2022-11-07T10:57:15.369Z,0.50
2022-11-07T10:58:15.724Z,0.30
2022-11-07T10:59:15.347Z,0.50
2022-11-07T11:00:15.432Z,0.40
2022-11-07T11:01:15.422Z,0.90
2022-11-07T11:02:15.357Z,0.60
2022-11-07T11:03:15.308Z,0.50
2022-11-07T11:04:15.314Z,0.50
2022-11-07T11:05:15.278Z,0.40
2022-11-07T11:06:15.295Z,0.40
2022-11-07T11:07:15.251Z,0.40
2022-11-07T11:08:15.398Z,0.30
2022-11-07T11:09:15.249Z,0.30
2022-11-07T11:10:15.225Z,0.30
2022-11-07T11:11:15.221Z,0.30
2022-11-07T11:12:15.199Z,0.50
2022-11-07T11:13:15.194Z,0.40
2022-11-07T11:14:15.214Z,0.30
2022-11-07T11:15:15.157Z,0.80
2022-11-07T11:16:15.172Z,0.30
2022-11-07T11:17:15.198Z,0.40
2022-11-07T11:18:15.512Z,0.40
2022-11-07T11:19:15.153Z,0.40
2022-11-07T11:20:15.120Z,0.50
2022-11-07T11:21:15.109Z,0.30
2022-11-07T11:22:15.090Z,0.40
2022-11-07T11:23:15.460Z,0.40
2022-11-07T11:24:15.081Z,0.30
2022-11-07T11:25:15.089Z,0.40
2022-11-07T11:26:15.039Z,0.40
2022-11-07T11:27:15.058Z,0.30
2022-11-07T11:28:15.228Z,0.40
2022-11-07T11:29:15.013Z,0.50
2022-11-07T11:30:15.046Z,0.40
2022-11-07T11:31:14.992Z,0.30
2022-11-07T11:32:14.971Z,0.60
2022-11-07T11:33:15.422Z,0.40
2022-11-07T11:34:14.962Z,0.40
2022-11-07T11:35:14.968Z,0.40
2022-11-07T11:36:14.923Z,0.30
2022-11-07T11:37:14.912Z,0.30
2022-11-07T11:38:14.907Z,0.40
2022-11-07T11:39:14.894Z,0.30
2022-11-07T11:40:15.006Z,0.30
2022-11-07T11:41:14.884Z,0.40
2022-11-07T11:42:14.916Z,0.40
2022-11-07T11:43:15.156Z,0.30
2022-11-07T11:44:14.865Z,0.30
2022-11-07T11:45:14.834Z,0.40
2022-11-07T11:46:14.836Z,0.30
2022-11-07T11:47:14.798Z,0.30
2022-11-07T11:48:14.794Z,0.40
2022-11-07T11:49:14.788Z,0.40
2022-11-07T11:50:14.875Z,0.40
2022-11-07T11:51:14.768Z,0.40
2022-11-07T11:52:14.745Z,0.40
2022-11-07T11:53:14.983Z,0.40
2022-11-07T11:54:14.724Z,0.40
2022-11-07T11:55:14.705Z,0.40
2022-11-07T11:56:14.744Z,0.40
2022-11-07T11:57:14.725Z,0.40
2022-11-07T11:58:14.741Z,0.40
2022-11-07T11:59:14.656Z,0.30
2022-11-07T12:00:14.720Z,0.40
2022-11-07T12:01:14.723Z,0.40
2022-11-07T12:02:14.758Z,0.40
2022-11-07T12:03:14.864Z,0.50
2022-11-07T12:04:14.610Z,0.30
2022-11-07T12:05:14.605Z,0.30
2022-11-07T12:06:14.615Z,0.40
2022-11-07T12:07:14.586Z,0.40
2022-11-07T12:08:14.608Z,0.40
2022-11-07T12:09:17.132Z,0.50
2022-11-07T12:10:14.573Z,0.50
2022-11-07T12:11:14.522Z,0.40
2022-11-07T12:12:14.521Z,0.40
2022-11-07T12:13:15.057Z,0.30
2022-11-07T12:14:14.503Z,0.30
2022-11-07T12:15:14.512Z,0.40
2022-11-07T12:16:14.486Z,0.40
2022-11-07T12:17:14.452Z,0.40
2022-11-07T12:18:14.521Z,0.40
2022-11-07T12:19:14.453Z,0.40
2022-11-07T12:20:14.430Z,0.40
2022-11-07T12:21:14.410Z,0.30
2022-11-07T12:22:14.399Z,0.30
2022-11-07T12:23:14.689Z,0.60
2022-11-07T12:24:14.400Z,0.40
2022-11-07T12:25:14.366Z,0.30
2022-11-07T12:26:14.356Z,0.40
2022-11-07T12:27:14.350Z,0.40
2022-11-07T12:28:14.427Z,0.50
2022-11-07T12:29:14.358Z,0.30
2022-11-07T12:30:14.327Z,0.40
2022-11-07T12:31:14.305Z,0.30
2022-11-07T12:32:14.318Z,0.50
2022-11-07T12:33:14.671Z,0.60
2022-11-07T12:34:14.297Z,0.60
2022-11-07T12:35:14.250Z,0.50
2022-11-07T12:36:14.244Z,0.50
2022-11-07T12:37:14.245Z,0.50
2022-11-07T12:38:14.228Z,0.40
2022-11-07T12:39:14.203Z,0.40
2022-11-07T12:40:14.219Z,0.50
2022-11-07T12:41:14.197Z,0.50
2022-11-07T12:42:14.193Z,0.40
2022-11-07T12:43:14.418Z,0.50
2022-11-07T12:44:14.188Z,0.40
2022-11-07T12:45:14.171Z,0.30
2022-11-07T12:46:14.127Z,0.40
2022-11-07T12:47:14.124Z,0.40
2022-11-07T12:48:14.110Z,0.40
2022-11-07T12:49:14.123Z,0.30
2022-11-07T12:50:14.104Z,0.40
2022-11-07T12:51:14.076Z,0.40
2022-11-07T12:52:14.080Z,0.40
2022-11-07T12:53:14.341Z,0.30
2022-11-07T12:54:16.665Z,0.30
2022-11-07T12:55:14.038Z,0.40
2022-11-07T12:56:14.050Z,0.30
2022-11-07T12:57:14.010Z,0.30
2022-11-07T12:58:13.994Z,0.30
2022-11-07T12:59:13.987Z,0.30
2022-11-07T13:00:13.988Z,0.40
2022-11-07T13:01:14.027Z,0.30
2022-11-07T13:02:14.094Z,0.30
2022-11-07T13:03:14.209Z,0.40
2022-11-07T13:04:13.931Z,0.30
2022-11-07T13:05:13.925Z,0.30
2022-11-07T13:06:13.926Z,0.30
2022-11-07T13:07:13.897Z,0.30
2022-11-07T13:08:13.889Z,0.40
2022-11-07T13:09:13.866Z,0.40
2022-11-07T13:10:13.854Z,0.30
2022-11-07T13:11:13.859Z,0.40
2022-11-07T13:12:13.847Z,0.40
2022-11-07T13:13:14.101Z,0.30
2022-11-07T13:14:13.834Z,0.30
2022-11-07T13:15:13.845Z,0.30
2022-11-07T13:16:15.973Z,0.50
2022-11-07T13:17:13.798Z,0.40
2022-11-07T13:18:13.790Z,0.40
2022-11-07T13:19:13.770Z,0.30
2022-11-07T13:20:13.751Z,0.40